createdAt,value
2022-08-08T00:00:56.574Z,56.69
2022-08-08T00:05:43.998Z,56.62
2022-08-08T00:10:41.926Z,56.81
2022-08-08T00:15:56.603Z,56.93
2022-08-08T00:20:45.844Z,57.05
2022-08-08T00:25:51.180Z,57.29
2022-08-08T00:31:00.183Z,57.62
2022-08-08T00:35:51.926Z,58.02
2022-08-08T00:41:09.293Z,58.57
2022-08-08T00:45:54.132Z,58.61
2022-08-08T00:50:53.887Z,58.18
2022-08-08T00:55:54.746Z,58.26
2022-08-08T01:00:55.753Z,58.52
2022-08-08T01:05:59.459Z,58.63
2022-08-08T01:11:01.861Z,58.88
2022-08-08T01:16:04.090Z,59.23
2022-08-08T01:21:08.648Z,59.25
2022-08-08T01:26:11.739Z,59.55
2022-08-08T01:32:05.661Z,59.84
2022-08-08T01:36:14.515Z,59.98
2022-08-08T01:41:16.168Z,60.51
2022-08-08T01:46:16.174Z,60.86
2022-08-08T01:51:32.022Z,61.70
2022-08-08T01:56:30.805Z,61.19
2022-08-08T02:01:28.209Z,61.26
2022-08-08T02:06:31.768Z,61.40
2022-08-08T02:11:59.096Z,61.66
2022-08-08T02:16:34.125Z,61.86
2022-08-08T02:21:52.712Z,61.84
2022-08-08T02:26:55.392Z,62.26
2022-08-08T02:31:58.767Z,62.57
2022-08-08T02:36:59.407Z,62.69
2022-08-08T02:42:05.716Z,62.82
2022-08-08T02:47:01.054Z,63.02
2022-08-08T02:52:32.517Z,63.06
2022-08-08T02:57:12.142Z,63.34
2022-08-08T03:02:08.217Z,63.32
2022-08-08T03:07:10.196Z,63.43
2022-08-08T03:12:13.851Z,63.67
2022-08-08T03:17:21.866Z,64.02
2022-08-08T03:22:38.607Z,64.07
2022-08-08T03:27:21.765Z,64.18
2022-08-08T03:32:41.719Z,64.31
2022-08-08T03:38:54.600Z,64.98
2022-08-08T03:42:45.708Z,64.95
2022-08-08T03:47:50.047Z,64.94
2022-08-08T03:52:49.362Z,65.00
2022-08-08T03:58:33.653Z,65.03
2022-08-08T04:02:52.597Z,65.04
2022-08-08T04:07:53.188Z,65.11
2022-08-08T04:12:53.052Z,65.20
2022-08-08T04:17:59.159Z,65.35
2022-08-08T04:22:57.041Z,65.31
2022-08-08T04:28:35.479Z,65.44
2022-08-08T04:33:01.891Z,65.44
2022-08-08T04:38:03.967Z,65.48
2022-08-08T04:43:19.042Z,65.36
2022-08-08T04:48:21.975Z,65.71
2022-08-08T04:54:26.838Z,65.56
2022-08-08T04:58:25.115Z,65.73
2022-08-08T05:04:09.746Z,65.62
2022-08-08T05:08:28.780Z,65.71
2022-08-08T05:13:29.244Z,65.57
2022-08-08T05:18:33.795Z,65.45
2022-08-08T05:23:41.320Z,65.40
2022-08-08T05:28:55.991Z,65.41
2022-08-08T05:33:44.046Z,65.28
2022-08-08T05:38:42.893Z,65.02
2022-08-08T05:44:03.767Z,64.75
2022-08-08T05:48:49.910Z,64.53
2022-08-08T05:54:24.516Z,64.29
2022-08-08T05:58:56.905Z,63.87
2022-08-08T06:03:55.708Z,63.35
2022-08-08T06:09:00.442Z,62.47
2022-08-08T06:14:02.560Z,61.08
2022-08-08T06:19:04.977Z,58.51
2022-08-08T06:24:22.821Z,56.36
2022-08-08T06:29:48.766Z,50.58
2022-08-08T06:34:27.507Z,44.21
2022-08-08T06:39:18.288Z,39.88
2022-08-08T06:44:22.960Z,37.95
2022-08-08T06:49:54.857Z,35.70
2022-08-08T06:54:24.408Z,34.09
2022-08-08T06:59:27.122Z,31.74
2022-08-08T07:04:38.876Z,29.15
2022-08-08T07:09:45.359Z,26.11
2022-08-08T07:14:32.548Z,24.87
2022-08-08T07:19:32.631Z,23.91
2022-08-08T07:24:34.056Z,19.71
2022-08-08T07:30:02.293Z,18.44
2022-08-08T07:34:48.382Z,18.33
2022-08-08T07:39:56.285Z,17.79
2022-08-08T07:44:44.175Z,16.75
2022-08-08T07:49:49.279Z,15.87
2022-08-08T07:54:48.949Z,16.34
2022-08-08T07:59:49.994Z,16.00
2022-08-08T08:04:52.367Z,15.98
2022-08-08T08:09:52.498Z,15.44
2022-08-08T08:14:55.645Z,16.08
2022-08-08T08:19:56.950Z,15.70
2022-08-08T08:24:58.584Z,15.03
2022-08-08T08:30:02.019Z,14.59
2022-08-08T08:35:03.595Z,14.56
2022-08-08T08:40:05.429Z,12.93
2022-08-08T08:45:10.282Z,13.00
2022-08-08T08:50:31.549Z,13.17
2022-08-08T08:55:12.266Z,13.23
2022-08-08T09:00:19.072Z,12.76
2022-08-08T09:05:49.221Z,13.07
2022-08-08T09:10:17.778Z,12.97
2022-08-08T09:15:40.893Z,12.60
2022-08-08T09:22:05.388Z,13.15
2022-08-08T09:25:24.558Z,13.22
2022-08-08T09:30:27.476Z,13.18
2022-08-08T09:35:32.250Z,13.18
2022-08-08T09:40:44.019Z,13.40
2022-08-08T09:46:01.973Z,13.12
2022-08-08T09:50:34.679Z,13.83
2022-08-08T09:56:04.829Z,13.83
2022-08-08T10:00:53.689Z,13.84
2022-08-08T10:05:39.779Z,14.02
2022-08-08T10:10:41.619Z,15.27
2022-08-08T10:15:42.358Z,15.66
2022-08-08T10:20:57.496Z,16.62
2022-08-08T10:25:56.969Z,17.52
2022-08-08T10:30:57.433Z,18.44
2022-08-08T10:36:20.018Z,19.81
2022-08-08T10:40:53.193Z,21.07
2022-08-08T10:45:57.329Z,21.81
2022-08-08T10:50:55.386Z,22.56
2022-08-08T10:55:56.460Z,23.07
2022-08-08T11:01:04.006Z,23.76
2022-08-08T11:06:00.900Z,25.13
2022-08-08T11:11:00.491Z,25.54
2022-08-08T11:16:07.810Z,26.34
2022-08-08T11:21:09.043Z,27.75
2022-08-08T11:26:06.440Z,28.25
2022-08-08T11:31:06.410Z,28.71
2022-08-08T11:36:08.390Z,29.44
2022-08-08T11:41:10.580Z,29.98
2022-08-08T11:46:17.385Z,30.76
2022-08-08T11:51:37.881Z,31.33
2022-08-08T11:56:15.520Z,31.47
2022-08-08T12:01:16.407Z,31.56
2022-08-08T12:06:17.517Z,32.49
2022-08-08T12:11:18.390Z,32.72
2022-08-08T12:16:20.482Z,32.89
2022-08-08T12:21:25.656Z,33.41
2022-08-08T12:26:28.356Z,33.62
2022-08-08T12:31:26.456Z,33.88
2022-08-08T12:36:28.885Z,33.96
2022-08-08T12:41:35.292Z,34.03
2022-08-08T12:46:32.561Z,34.62
2022-08-08T12:51:39.546Z,34.84
2022-08-08T12:56:34.459Z,34.90
2022-08-08T13:01:36.968Z,34.65
2022-08-08T13:06:37.516Z,34.93
2022-08-08T13:12:19.815Z,34.92
2022-08-08T13:16:40.565Z,34.93
2022-08-08T13:21:53.127Z,35.03
2022-08-08T13:26:42.638Z,34.90
2022-08-08T13:31:43.493Z,34.98
2022-08-08T13:36:44.578Z,35.24
2022-08-08T13:41:54.653Z,35.11
2022-08-08T13:46:46.533Z,35.40
2022-08-08T13:51:48.685Z,35.60
2022-08-08T13:56:59.632Z,36.14
2022-08-08T14:01:53.084Z,36.19
2022-08-08T14:06:52.558Z,36.43
2022-08-08T14:11:54.586Z,36.39
2022-08-08T14:16:55.266Z,36.07
2022-08-08T14:21:55.556Z,35.50
2022-08-08T14:26:57.643Z,36.13
2022-08-08T14:32:12.766Z,36.90
2022-08-08T14:36:59.555Z,37.52
2022-08-08T14:42:03.047Z,37.81
2022-08-08T14:47:02.637Z,37.73
2022-08-08T14:52:04.588Z,37.75
2022-08-08T14:57:05.648Z,37.35
2022-08-08T15:02:10.807Z,37.72
2022-08-08T15:07:22.565Z,37.94
2022-08-08T15:12:14.943Z,37.94
2022-08-08T15:17:16.706Z,38.32
2022-08-08T15:22:17.920Z,38.44
2022-08-08T15:28:03.225Z,38.47
2022-08-08T15:32:23.273Z,38.38
2022-08-08T15:37:23.629Z,38.31
2022-08-08T15:42:32.397Z,39.10
2022-08-08T15:47:26.581Z,39.05
2022-08-08T15:52:26.625Z,38.95
2022-08-08T15:57:26.640Z,39.22
2022-08-08T16:02:30.499Z,38.99
2022-08-08T16:07:35.875Z,39.02
2022-08-08T16:13:11.363Z,39.29
2022-08-08T16:17:57.721Z,39.34
2022-08-08T16:22:38.346Z,39.59
2022-08-08T16:27:38.889Z,39.69
2022-08-08T16:32:39.701Z,39.43
2022-08-08T16:37:47.263Z,39.43
2022-08-08T16:42:44.843Z,39.84
2022-08-08T16:47:46.906Z,39.97
2022-08-08T16:55:05.349Z,39.94
2022-08-08T16:58:14.412Z,39.86
2022-08-08T17:02:55.771Z,40.20
2022-08-08T17:07:55.827Z,40.02
2022-08-08T17:12:57.716Z,40.26
2022-08-08T17:18:03.113Z,40.43
2022-08-08T17:23:16.659Z,40.30
2022-08-08T17:28:01.701Z,40.67
2022-08-08T17:34:36.728Z,40.65
2022-08-08T17:38:03.751Z,40.96
2022-08-08T17:43:03.774Z,41.13
2022-08-08T17:48:03.799Z,41.43
2022-08-08T17:53:03.698Z,41.17
2022-08-08T17:58:05.718Z,41.13
2022-08-08T18:03:08.860Z,41.29
2022-08-08T18:08:07.725Z,41.56
2022-08-08T18:13:09.766Z,42.00
2022-08-08T18:18:29.556Z,42.20
2022-08-08T18:23:14.665Z,42.60
2022-08-08T18:28:14.350Z,42.77
2022-08-08T18:33:36.563Z,42.88
2022-08-08T18:38:19.401Z,43.06
2022-08-08T18:43:18.864Z,43.46
2022-08-08T18:48:19.024Z,43.70
2022-08-08T18:53:18.792Z,44.09
2022-08-08T18:58:21.633Z,44.33
2022-08-08T19:03:23.069Z,44.75
2022-08-08T19:08:29.351Z,45.26
2022-08-08T19:13:52.600Z,45.49
2022-08-08T19:18:31.853Z,46.05
2022-08-08T19:23:35.445Z,46.32
2022-08-08T19:28:36.536Z,46.84
2022-08-08T19:33:52.182Z,46.97
2022-08-08T19:38:37.893Z,47.63
2022-08-08T19:43:56.232Z,48.05
2022-08-08T19:48:39.880Z,48.44
2022-08-08T19:53:53.808Z,48.78
2022-08-08T19:58:41.960Z,48.93
2022-08-08T20:04:01.438Z,49.30
2022-08-08T20:08:48.210Z,49.52
2022-08-08T20:14:31.515Z,50.13
2022-08-08T20:18:52.981Z,50.46
2022-08-08T20:23:54.237Z,50.85
2022-08-08T20:28:54.899Z,51.48
2022-08-08T20:34:27.075Z,51.21
2022-08-08T20:38:57.836Z,51.38
2022-08-08T20:43:59.835Z,51.52
2022-08-08T20:49:00.094Z,52.17
2022-08-08T20:54:04.845Z,52.59
2022-08-08T20:59:03.232Z,52.63
2022-08-08T21:04:03.856Z,52.68
2022-08-08T21:09:03.889Z,53.05
2022-08-08T21:14:07.475Z,53.51
2022-08-08T21:19:05.882Z,53.73
2022-08-08T21:24:22.420Z,54.10
2022-08-08T21:29:11.866Z,53.84
2022-08-08T21:34:18.460Z,54.63
2022-08-08T21:39:14.827Z,54.26
2022-08-08T21:44:15.947Z,54.31
2022-08-08T21:49:18.002Z,54.63
2022-08-08T21:54:52.337Z,54.53
2022-08-08T21:59:21.001Z,54.60
2022-08-08T22:04:20.982Z,54.80
2022-08-08T22:09:26.796Z,54.80
2022-08-08T22:14:23.723Z,54.94
2022-08-08T22:19:24.931Z,55.34
2022-08-08T22:24:28.767Z,55.55
2022-08-08T22:29:58.759Z,56.46
2022-08-08T22:34:30.897Z,56.81
2022-08-08T22:39:45.665Z,56.71
2022-08-08T22:44:33.479Z,57.28
2022-08-08T22:49:32.955Z,57.05
2022-08-08T22:54:53.956Z,57.51
2022-08-08T22:59:58.959Z,57.86
2022-08-08T23:04:39.877Z,57.96
2022-08-08T23:09:58.560Z,58.15
2022-08-08T23:14:56.307Z,58.29
2022-08-08T23:19:48.884Z,58.51
2022-08-08T23:24:50.031Z,58.41
2022-08-08T23:29:56.132Z,58.58
2022-08-08T23:34:59.064Z,58.75
2022-08-08T23:39:55.371Z,58.97
2022-08-08T23:44:56.109Z,59.04
2022-08-08T23:50:02.795Z,59.10
2022-08-08T23:55:07.575Z,59.41
